Selahattin Aslan 2 — TCSS2 — position and weather

sailwx.info

Track history (hours):
 
Tides and Currents Weather Stations Pressure Air Temp Water Temp Dewpoint Dewpoint Depression Visibility Wind Speed Wind Dir Waves Ship Positions

Selahattin Aslan 2

Last reported at 2018-Jun-16 10:19 UTC. Time now 2018-Jun-18 07:56 UTC.
Position N 37°51' E 015°55'.

Length 89 m; draft 4.4 m.

Type: Cargo ship. MMSI: 271000965.

Date/timePositionNaut miles runAvg speedWind from/ knotsBaromVisibWave heightAir tempDewpointWater temp
2018-Jun-16 10:19N 37°51' E 015°55'310.6
2018-Jun-16 10:00N 37°52' E 015°51'510.6
2018-Jun-16 09:30N 37°53' E 015°44'510.8
2018-Jun-16 09:00N 37°57' E 015°39'510.7
2018-Jun-16 08:30N 38°01' E 015°35'611.7
2018-Jun-16 08:00N 38°07' E 015°35'610.9
2018-Jun-16 07:30N 38°12' E 015°36'5 9.5
2018-Jun-16 06:59N 38°16' E 015°40'1310.8
2018-Jun-16 05:44N 38°29' E 015°35'210.6
2018-Jun-16 05:30N 38°31' E 015°34'611.1
2018-Jun-16 05:00N 38°36' E 015°31'10211.0
2018-Jun-15 19:43N 40°12' E 014°45'410.9
2018-Jun-15 19:22N 40°16' E 014°44'510.9
2018-Jun-15 18:57N 40°21' E 014°44'510.8
2018-Jun-15 18:29N 40°25' E 014°44'511.0
2018-Jun-15 18:00N 40°31' E 014°44'611.3
2018-Jun-15 17:29N 40°37' E 014°44'  
2018-Jun-09 16:53N 40°32' E 014°45'4 8.9
2018-Jun-09 16:29N 40°28' E 014°45'3 5.9
2018-Jun-09 16:00N 40°25' E 014°45'7 8.7
2018-Jun-09 15:13N 40°18' E 014°45'6 8.7
2018-Jun-09 14:30N 40°12' E 014°45'112 8.6
2018-Jun-09 01:27N 38°28' E 015°38'4 9.1
2018-Jun-09 00:59N 38°24' E 015°40'4 8.8
2018-Jun-09 00:29N 38°20' E 015°42'4 7.8
2018-Jun-08 23:55N 38°15' E 015°41'3 8.4
2018-Jun-08 23:30N 38°13' E 015°37'4 8.8
2018-Jun-08 23:00N 38°09' E 015°37'4 8.4
2018-Jun-08 22:30N 38°05' E 015°37'4 8.8
2018-Jun-08 22:00N 38°00' E 015°37'4 8.5
2018-Jun-08 21:30N 37°56' E 015°39'5 9.2
2018-Jun-08 21:00N 37°54' E 015°44'6 9.8
2018-Jun-08 20:24N 37°51' E 015°51'4 9.7
2018-Jun-08 20:00N 37°51' E 015°55'377 8.7
2018-Jun-07 00:41N 37°09' E 023°48'77 9.4
2018-Jun-06 16:32N 38°12' E 024°44'0 8.2
2018-Jun-06 16:30N 38°12' E 024°44'5 8.8
2018-Jun-06 15:59N 38°16' E 024°47'5 8.8
2018-Jun-06 15:23N 38°21' E 024°50'4 8.9
2018-Jun-06 14:59N 38°24' E 024°52'4 9.0
2018-Jun-06 14:29N 38°28' E 024°54'22 9.1
2018-Jun-06 12:04N 38°47' E 025°08'  
Track history (hours):
 
Tides and Currents Weather Stations Pressure Air Temp Water Temp Dewpoint Dewpoint Depression Visibility Wind Speed Wind Dir Waves Ship Positions

Selahattin Aslan 2

Last reported at 2018-Jun-16 10:19 UTC. Time now 2018-Jun-18 07:56 UTC.
Position N 37°51' E 015°55'.

Length 89 m; draft 4.4 m.

Type: Cargo ship. MMSI: 271000965.

Date/timePositionNaut miles runAvg speedWind from/ knotsBaromVisibWave heightAir tempDewpointWater temp
2018-Jun-16 10:19N 37°51' E 015°55'310.6
2018-Jun-16 10:00N 37°52' E 015°51'510.6
2018-Jun-16 09:30N 37°53' E 015°44'510.8
2018-Jun-16 09:00N 37°57' E 015°39'510.7
2018-Jun-16 08:30N 38°01' E 015°35'611.7
2018-Jun-16 08:00N 38°07' E 015°35'610.9
2018-Jun-16 07:30N 38°12' E 015°36'5 9.5
2018-Jun-16 06:59N 38°16' E 015°40'1310.8
2018-Jun-16 05:44N 38°29' E 015°35'210.6
2018-Jun-16 05:30N 38°31' E 015°34'611.1
2018-Jun-16 05:00N 38°36' E 015°31'10211.0
2018-Jun-15 19:43N 40°12' E 014°45'410.9
2018-Jun-15 19:22N 40°16' E 014°44'510.9
2018-Jun-15 18:57N 40°21' E 014°44'510.8
2018-Jun-15 18:29N 40°25' E 014°44'511.0
2018-Jun-15 18:00N 40°31' E 014°44'611.3
2018-Jun-15 17:29N 40°37' E 014°44'  
2018-Jun-09 16:53N 40°32' E 014°45'4 8.9
2018-Jun-09 16:29N 40°28' E 014°45'3 5.9
2018-Jun-09 16:00N 40°25' E 014°45'7 8.7
2018-Jun-09 15:13N 40°18' E 014°45'6 8.7
2018-Jun-09 14:30N 40°12' E 014°45'112 8.6
2018-Jun-09 01:27N 38°28' E 015°38'4 9.1
2018-Jun-09 00:59N 38°24' E 015°40'4 8.8
2018-Jun-09 00:29N 38°20' E 015°42'4 7.8
2018-Jun-08 23:55N 38°15' E 015°41'3 8.4
2018-Jun-08 23:30N 38°13' E 015°37'4 8.8
2018-Jun-08 23:00N 38°09' E 015°37'4 8.4
2018-Jun-08 22:30N 38°05' E 015°37'4 8.8
2018-Jun-08 22:00N 38°00' E 015°37'4 8.5
2018-Jun-08 21:30N 37°56' E 015°39'5 9.2
2018-Jun-08 21:00N 37°54' E 015°44'6 9.8
2018-Jun-08 20:24N 37°51' E 015°51'4 9.7
2018-Jun-08 20:00N 37°51' E 015°55'377 8.7
2018-Jun-07 00:41N 37°09' E 023°48'77 9.4
2018-Jun-06 16:32N 38°12' E 024°44'0 8.2
2018-Jun-06 16:30N 38°12' E 024°44'5 8.8
2018-Jun-06 15:59N 38°16' E 024°47'5 8.8
2018-Jun-06 15:23N 38°21' E 024°50'4 8.9
2018-Jun-06 14:59N 38°24' E 024°52'4 9.0
2018-Jun-06 14:29N 38°28' E 024°54'22 9.1
2018-Jun-06 12:04N 38°47' E 025°08'  

Dump ship's entire track history